Latest Weather Observations for Coonawarra

IDS60801

Issued at 7:31 pm CST Tuesday 31 May 2016 (issued every 30 minutes, with the page automatically refreshed every 10 minutes)

About weather observations | Map of weather stations | Latest weather observations for SA | Other Formats
Station Details ID: 026091 Name: COONAWARRA Lat: -37.29 Lon: 140.83 Height: 57.0 m
Data from the previous 72 hours. | See also: Recent months at Coonawarra
Date/Time
CST
Temp
°C
App
Temp
°C
Dew
Point
Rel
Hum
%
Delta-T
°C
Wind Press
QNH
hPa
Press
MSL
hPa
Rain
since 9 am
mm
Dir
 
Spd
km/h
Gust
km/h
Spd
kts
Gust
kts
31/07:30pm 11.2 7.7 5.5 68 2.6 ENE 13 20 7 11 1026.4 1026.4 0.0
31/07:00pm 11.0 7.6 5.8 70 2.4 ENE 13 17 7 9 1026.3 1026.3 0.0
31/06:30pm 11.2 8.2 6.0 70 2.4 ENE 11 15 6 8 1026.2 1026.2 0.0
31/06:00pm 11.8 8.4 6.0 67 2.7 ENE 13 17 7 9 1026.0 1026.0 0.0
31/05:30pm 11.9 9.0 6.4 69 2.6 ENE 11 13 6 7 1025.9 1025.9 0.0
31/05:00pm 12.0 9.1 6.3 68 2.7 ENE 11 13 6 7 1025.6 1025.6 0.0
31/04:30pm 13.0 10.0 6.0 62 3.3 NE 11 15 6 8 1025.5 1025.5 0.0
31/04:00pm 13.5 9.7 5.9 60 3.6 NE 15 24 8 13 1025.3 1025.3 0.0
31/03:30pm 13.8 10.5 6.5 61 3.5 NE 13 17 7 9 1025.3 1025.3 0.0
31/03:00pm 14.0 9.8 5.7 57 3.9 NE 17 24 9 13 1025.3 1025.3 0.0
31/02:30pm 14.3 8.6 5.1 54 4.3 NE 24 30 13 16 1025.3 1025.3 0.0
31/02:00pm 14.3 9.6 5.9 57 4.0 NE 20 30 11 16 1025.3 1025.3 0.0
31/01:30pm 14.1 9.3 5.4 56 4.1 NE 20 35 11 19 1025.4 1025.4 0.0
31/01:00pm 14.3 9.7 5.6 56 4.1 NNE 19 26 10 14 1025.8 1025.8 0.0
31/12:30pm 13.4 9.2 5.7 59 3.6 NNE 17 26 9 14 1026.0 1026.0 0.0
31/12:00pm 13.6 8.3 5.2 57 3.9 NE 22 30 12 16 1026.2 1026.2 0.0
31/11:30am 13.2 7.0 4.4 55 4.0 NNE 26 35 14 19 1026.7 1026.7 0.0
31/11:00am 12.5 6.7 4.6 58 3.6 NE 24 35 13 19 1027.0 1027.0 0.0
31/10:30am 12.1 7.2 4.9 61 3.3 NE 20 32 11 17 1027.3 1027.3 0.0
31/10:00am 11.1 6.1 4.7 64 2.9 NNE 20 30 11 16 1027.5 1027.5 0.0
31/09:30am 10.3 4.9 4.5 67 2.6 NE 22 35 12 19 1027.3 1027.3 0.0
31/09:00am 9.6 4.6 4.6 71 2.2 NE 20 30 11 16 1027.5 1027.5 2.2
31/08:30am 9.5 4.4 4.3 70 2.3 NNE 20 28 11 15 1027.6 1027.6 2.2
31/08:00am 9.0 3.6 4.7 74 1.9 NE 22 33 12 18 1027.3 1027.3 2.0
31/07:30am 9.4 3.9 3.9 68 2.4 NE 22 32 12 17 1026.8 1026.8 2.0
31/07:00am 9.3 3.3 3.5 67 2.5 NE 24 32 13 17 1026.6 1026.6 2.0
31/06:30am 9.1 3.6 4.1 71 2.2 NE 22 32 12 17 1026.2 1026.2 2.0
31/06:00am 9.6 4.5 3.9 67 2.5 NE 20 32 11 17 1026.0 1026.0 2.0
31/05:30am 9.7 4.6 4.0 67 2.5 NE 20 33 11 18 1025.7 1025.7 2.0
31/05:00am 9.5 4.6 4.3 70 2.3 NE 19 28 10 15 1025.6 1025.6 2.0
31/04:30am 9.7 3.9 4.3 69 2.4 NE 24 33 13 18 1025.5 1025.5 2.0
31/04:00am 9.5 3.7 4.5 71 2.2 NE 24 32 13 17 1025.4 1025.4 2.0
31/03:30am 9.5 4.5 4.5 71 2.2 NE 20 28 11 15 1025.4 1025.4 2.0
31/03:00am 9.8 4.3 3.9 66 2.6 NE 22 33 12 18 1025.5 1025.5 2.0
31/02:30am 9.8 4.4 4.4 69 2.4 NE 22 35 12 19 1025.4 1025.4 1.8
31/02:00am 9.8 4.4 4.6 70 2.3 NE 22 32 12 17 1025.5 1025.5 1.8
31/01:30am 9.9 4.9 4.5 69 2.4 NE 20 30 11 16 1025.7 1025.7 1.8
31/01:00am 10.0 5.2 4.6 69 2.4 NE 19 28 10 15 1025.8 1025.8 1.8
31/12:30am 10.2 5.2 4.6 68 2.5 NE 20 30 11 16 1025.7 1025.7 1.8
31/12:00am 10.2 5.4 4.6 68 2.5 NE 19 26 10 14 1025.6 1025.6 1.8
 
Date/Time
CST
Temp
°C
App
Temp
°C
Dew
Point
Rel
Hum
%
Delta-T
°C
Wind Press
QNH
hPa
Press
MSL
hPa
Rain
since 9 am
mm
Dir
 
Spd
km/h
Gust
km/h
Spd
kts
Gust
kts
30/11:30pm 10.1 5.2 5.0 70 2.3 NE 20 30 11 16 1025.5 1025.5 1.8
30/11:00pm 10.2 4.9 5.1 70 2.3 NE 22 33 12 18 1025.6 1025.6 1.8
30/10:30pm 10.3 5.4 5.0 69 2.4 NE 20 32 11 17 1025.5 1025.5 1.8
30/10:00pm 10.4 5.1 5.1 69 2.4 NE 22 32 12 17 1025.4 1025.4 1.8
30/09:30pm 10.2 5.0 5.6 73 2.1 NE 22 32 12 17 1025.3 1025.3 1.8
30/09:00pm 10.2 5.0 5.6 73 2.1 NE 22 33 12 18 1025.1 1025.1 1.8
30/08:30pm 10.0 5.4 6.3 78 1.7 ENE 20 28 11 15 1024.9 1024.9 1.8
30/08:00pm 10.1 6.4 6.4 78 1.7 ENE 15 24 8 13 1024.9 1024.9 1.6
30/07:30pm 10.5 6.4 6.2 75 2.0 NE 17 24 9 13 1024.9 1024.9 0.4
30/07:00pm 11.3 6.6 5.2 66 2.8 ENE 19 26 10 14 1024.6 1024.6 0.0
30/06:30pm 11.4 6.5 5.3 66 2.8 NE 20 28 11 15 1024.4 1024.4 0.0
30/06:00pm 11.9 7.1 4.6 61 3.3 NE 19 26 10 14 1024.1 1024.1 0.0
30/05:30pm 12.0 7.3 5.0 62 3.2 ENE 19 26 10 14 1023.8 1023.8 0.0
30/05:00pm 12.0 8.5 5.3 63 3.1 ENE 13 20 7 11 1023.4 1023.5 0.0
30/04:30pm 12.6 8.7 5.3 61 3.4 ENE 15 22 8 12 1023.0 1023.1 0.0
30/04:00pm 12.8 8.4 5.0 59 3.6 ENE 17 24 9 13 1022.6 1022.7 0.0
30/03:30pm 13.3 9.0 5.1 57 3.8 NE 17 28 9 15 1022.6 1022.7 0.0
30/03:00pm 13.4 8.5 5.0 57 3.9 NE 20 30 11 16 1022.5 1022.6 0.0
30/02:30pm 14.3 8.6 4.8 53 4.4 NE 24 33 13 18 1022.3 1022.4 0.0
30/02:00pm 13.6 7.5 4.7 55 4.1 NE 26 37 14 20 1022.2 1022.3 0.0
30/01:30pm 13.6 7.9 5.0 56 4.0 NE 24 35 13 19 1022.2 1022.3 0.0
30/01:00pm 13.8 7.7 5.0 55 4.1 NE 26 35 14 19 1022.5 1022.6 0.0
30/12:30pm 13.3 6.8 4.6 55 4.0 NE 28 41 15 22 1022.9 1023.0 0.0
30/12:00pm 13.2 6.6 4.4 55 4.0 NE 28 37 15 20 1023.2 1023.3 0.0
30/11:30am 13.0 6.3 3.9 54 4.1 NE 28 44 15 24 1023.4 1023.5 0.0
30/11:00am 12.5 6.6 3.8 55 3.9 NE 24 37 13 20 1023.7 1023.7 0.0
30/10:30am 11.5 4.7 3.3 57 3.6 NE 28 37 15 20 1024.1 1024.1 0.0
30/10:00am 10.5 4.4 2.8 59 3.3 NE 24 35 13 19 1024.1 1024.1 0.0
30/09:30am 9.8 4.0 2.5 60 3.1 NE 22 32 12 17 1024.2 1024.2 0.0
30/09:00am 8.9 3.1 2.2 63 2.8 NE 22 33 12 18 1024.1 1024.1 0.2
30/08:30am 8.2 2.3 1.9 64 2.6 NE 22 32 12 17 1023.9 1023.9 0.2
30/08:00am 7.3 1.0 1.6 67 2.3 NE 24 32 13 17 1023.4 1023.5 0.2
30/07:30am 6.5 1.0 1.8 72 1.9 NE 20 28 11 15 1023.2 1023.3 0.2
30/07:00am 6.3 0.8 1.6 72 1.9 NE 20 30 11 16 1023.0 1023.1 0.2
30/06:30am 6.3 0.8 1.8 73 1.8 NE 20 26 11 14 1022.9 1023.0 0.2
30/06:00am 6.4 1.1 2.0 73 1.8 NE 19 28 10 15 1022.7 1022.8 0.2
30/05:30am 6.6 1.1 1.6 70 2.0 NE 20 28 11 15 1022.6 1022.7 0.2
30/05:00am 6.6 1.1 1.6 70 2.0 NE 20 28 11 15 1022.4 1022.5 0.2
30/04:30am 6.1 1.1 1.6 73 1.8 NE 17 24 9 13 1022.3 1022.4 0.2
30/04:00am 6.0 0.7 1.8 74 1.7 NE 19 24 10 13 1022.1 1022.2 0.2
30/03:30am 6.0 1.0 1.5 73 1.8 NE 17 24 9 13 1022.0 1022.1 0.2
30/03:00am 6.0 1.1 1.8 74 1.7 NE 17 24 9 13 1022.0 1022.1 0.2
30/02:30am 6.0 1.1 2.0 75 1.6 NE 17 24 9 13 1022.1 1022.2 0.2
30/02:00am 5.9 1.0 1.9 75 1.6 NE 17 26 9 14 1022.1 1022.2 0.2
30/01:30am 6.0 1.5 2.0 75 1.6 NE 15 22 8 12 1021.9 1022.0 0.2
30/01:00am 6.4 1.5 2.0 73 1.8 NE 17 22 9 12 1022.0 1022.1 0.2
30/12:30am 6.3 1.4 2.1 74 1.7 NE 17 20 9 11 1021.9 1022.0 0.2
30/12:00am 6.2 1.7 2.3 76 1.6 NE 15 19 8 10 1021.9 1022.0 0.2
 
Date/Time
CST
Temp
°C
App
Temp
°C
Dew
Point
Rel
Hum
%
Delta-T
°C
Wind Press
QNH
hPa
Press
MSL
hPa
Rain
since 9 am
mm
Dir
 
Spd
km/h
Gust
km/h
Spd
kts
Gust
kts
29/11:30pm 6.5 1.6 2.3 74 1.7 NE 17 20 9 11 1021.8 1021.9 0.2
29/11:00pm 6.4 1.6 2.5 76 1.6 NE 17 22 9 12 1021.8 1021.9 0.2
29/10:30pm 6.6 1.8 2.7 76 1.6 NE 17 22 9 12 1021.9 1022.0 0.2
29/10:00pm 6.5 1.7 2.6 76 1.6 NE 17 22 9 12 1021.8 1021.9 0.2
29/09:30pm 5.8 1.8 2.6 80 1.3 ENE 13 15 7 8 1021.8 1021.9 0.2
29/09:00pm 6.0 2.4 2.8 80 1.3 ENE 11 13 6 7 1021.8 1021.9 0.2
29/08:30pm 6.6 2.7 3.3 79 1.4 ENE 13 15 7 8 1021.8 1021.9 0.2
29/08:00pm 6.7 3.1 3.1 78 1.5 E 11 13 6 7 1021.7 1021.8 0.2
29/07:30pm 7.1 3.9 3.3 77 1.6 E 9 11 5 6 1021.6 1021.7 0.2
29/07:00pm 7.8 4.7 3.8 76 1.7 E 9 11 5 6 1021.3 1021.4 0.2
29/06:30pm 8.2 5.2 4.1 75 1.8 ENE 9 11 5 6 1021.0 1021.1 0.2
29/06:00pm 8.6 5.5 3.7 71 2.1 E 9 11 5 6 1020.8 1020.9 0.2
29/05:30pm 9.5 5.6 3.5 66 2.6 E 13 17 7 9 1020.5 1020.6 0.2
29/05:00pm 9.9 6.4 3.7 65 2.7 E 11 15 6 8 1020.4 1020.5 0.2
29/04:30pm 10.2 6.4 3.8 64 2.8 E 13 19 7 10 1020.3 1020.4 0.2
29/04:00pm 10.4 7.2 3.3 61 3.1 E 9 13 5 7 1020.3 1020.4 0.2
29/03:30pm 10.3 6.2 2.3 57 3.4 ENE 13 17 7 9 1020.4 1020.5 0.2
29/03:00pm 10.5 6.5 2.6 58 3.4 ENE 13 20 7 11 1020.4 1020.5 0.2
29/02:30pm 10.4 5.9 2.1 56 3.5 NE 15 26 8 14 1020.5 1020.6 0.2
29/02:00pm 10.5 6.8 2.3 57 3.5 ENE 11 17 6 9 1020.6 1020.7 0.2
29/01:30pm 10.4 6.3 2.1 56 3.5 NNE 13 20 7 11 1020.7 1020.8 0.0
29/01:00pm 10.0 5.1 1.9 57 3.4 NE 17 20 9 11 1020.9 1021.0 0.0
29/12:30pm 9.6 5.5 2.2 60 3.1 ENE 13 19 7 10 1021.1 1021.2 0.0
29/12:00pm 9.6 6.3 2.2 60 3.1 ENE 9 15 5 8 1021.2 1021.3 0.0
29/11:30am 10.0 5.9 2.2 58 3.3 ENE 13 20 7 11 1021.5 1021.6 0.0
29/11:00am 9.2 4.7 2.0 60 3.0 NNE 15 20 8 11 1022.0 1022.1 0.0
29/10:30am 9.3 5.1 1.8 59 3.1 NNE 13 19 7 10 1022.2 1022.3 0.0
29/10:00am 9.3 4.8 2.1 61 3.0 NE 15 20 8 11 1022.2 1022.3 0.0
29/09:30am 9.3 5.3 3.0 65 2.7 NE 13 19 7 10 1022.1 1022.2 0.0
29/09:00am 9.2 5.3 3.4 67 2.5 NE 13 17 7 9 1021.8 1021.9 0.0
29/08:30am 9.1 6.0 3.5 68 2.4 ENE 9 13 5 7 1021.6 1021.7 0.0
29/08:00am 8.8 7.2 4.5 74 1.9 ENE 2 6 1 3 1021.3 1021.4 0.0
29/07:30am 8.8 6.1 3.5 69 2.3 NE 7 11 4 6 1021.2 1021.3 0.0
29/07:00am 8.7 6.1 4.1 73 2.0 NNE 7 9 4 5 1020.9 1021.0 0.0
29/06:30am 8.7 6.6 4.1 73 2.0 NE 4 9 2 5 1020.5 1020.6 0.0
29/06:00am 8.8 6.4 4.5 74 1.9 NE 6 7 3 4 1020.3 1020.4 0.0
29/05:30am 8.8 6.2 4.2 73 2.0 NE 7 9 4 5 1020.1 1020.2 0.0
29/05:00am 9.4 6.7 2.8 63 2.8 NNE 6 9 3 5 1019.8 1019.9 0.0
29/04:30am 8.9 6.5 4.4 73 2.0 ENE 6 7 3 4 1019.8 1019.9 0.0
29/04:00am 9.3 6.8 3.8 68 2.4 NE 6 9 3 5 1019.7 1019.8 0.0
29/03:30am 9.6 6.6 2.3 60 3.1 SE 7 11 4 6 1019.6 1019.7 0.0
29/03:00am 9.7 7.0 2.4 60 3.1 SE 6 11 3 6 1019.6 1019.7 0.0
29/02:30am 9.4 6.3 3.4 66 2.6 E 9 13 5 7 1019.5 1019.6 0.0
29/02:00am 9.5 7.0 3.5 66 2.6 SSE 6 7 3 4 1019.7 1019.8 0.0
29/01:30am 9.4 6.7 3.7 67 2.5 SE 7 9 4 5 1019.7 1019.8 0.0
29/01:00am 9.6 6.5 3.6 66 2.6 SSE 9 11 5 6 1019.7 1019.8 0.0
29/12:30am 10.0 6.8 3.0 62 3.0 SE 9 13 5 7 1019.8 1019.9 0.0
29/12:00am 9.9 7.2 3.7 65 2.7 SSE 7 11 4 6 1019.6 1019.7 0.0
 
Date/Time
CST
Temp
°C
App
Temp
°C
Dew
Point
Rel
Hum
%
Delta-T
°C
Wind Press
QNH
hPa
Press
MSL
hPa
Rain
since 9 am
mm
Dir
 
Spd
km/h
Gust
km/h
Spd
kts
Gust
kts
28/11:30pm 9.8 7.2 4.4 69 2.4 SSW 7 9 4 5 1019.6 1019.7 0.0
28/11:00pm 9.8 7.1 3.9 66 2.6 S 7 11 4 6 1019.7 1019.8 0.0
28/10:30pm 9.7 7.1 4.3 69 2.4 S 7 13 4 7 1019.6 1019.7 0.0
28/10:00pm 9.8 7.4 4.1 67 2.5 SSE 6 7 3 4 1019.4 1019.5 0.0
28/09:30pm 9.8 7.2 4.1 67 2.5 S 7 9 4 5 1019.4 1019.5 0.0
28/09:00pm 9.5 6.9 4.3 70 2.3 SSW 7 9 4 5 1019.3 1019.4 0.0
28/08:30pm 9.4 7.1 4.7 72 2.1 SSW 6 7 3 4 1019.1 1019.2 0.0
28/08:00pm 9.7 7.3 4.5 70 2.3 S 6 7 3 4 1019.0 1019.1 0.0

Other Formats:

Comma delimited format used in spreadsheet applications
http://www.bom.gov.au/fwo/IDS60801/IDS60801.94817.axf

JavaScript Object Notation format (JSON) in row-major order
http://www.bom.gov.au/fwo/IDS60801/IDS60801.94817.json